Terminal Aerodrome Forecast
Issued by NWS

Home | Current Version | Previous Version | Graphics & Text | Print | Product List | Glossary On
Versions: 1 2 3 4 5 6 7 8 9 10 11 12 13 14 15 16
000
FTUS43 KICT 251745
TAFCNU
TAF
KCNU 251745Z 2518/2618 18023G32KT P6SM SCT250
     FM260100 18017G23KT P6SM SCT250
     FM260700 19013KT P6SM SCT250
     FM261300 19009KT 6SM BR SCT006 BKN009=

USA.gov is the U.S. government's official web portal to all federal, state and local government web resources and services.